Time;durP1;ratioP1;P1;durP2;ratioP2;P2;SDS_P1;SDS_P2;PMS_P1;PMS_P2;Temp;Humidity;BMP_temperature;BMP_pressure;BME280_temperature;BME280_humidity;BME280_pressure;Samples;Min_cycle;Max_cycle;Signal;HPM_P1;HPM_P2
2024/03/02 00:00:57;;;;;;;14.15;7.20;;;;;;;;;;6194872;28;20051;-77
2024/03/02 00:03:58;;;;;;;14.30;7.05;;;;;;;;;;6183263;28;20971;-80
2024/03/02 00:07:00;;;;;;;14.73;6.95;;;;;;;;;;6180576;28;20049;-78
2024/03/02 00:10:10;;;;;;;12.52;5.78;;;;;;;;;;6177861;28;20047;-78
2024/03/02 00:13:12;;;;;;;10.10;5.40;;;;;;;;;;6185914;28;20065;-79
2024/03/02 00:16:16;;;;;;;10.43;5.43;;;;;;;;;;6179882;28;20415;-76
2024/03/02 00:19:17;;;;;;;8.95;5.25;;;;;;;;;;6179231;28;20047;-80
2024/03/02 00:22:19;;;;;;;14.70;6.50;;;;;;;;;;6162428;28;20050;-82
2024/03/02 00:25:21;;;;;;;14.63;6.85;;;;;;;;;;6189005;28;20154;-81
2024/03/02 00:28:29;;;;;;;12.32;6.38;;;;;;;;;;6194214;28;20445;-80
2024/03/02 00:31:31;;;;;;;12.52;5.70;;;;;;;;;;6186839;28;20078;-78
2024/03/02 00:34:33;;;;;;;11.45;4.97;;;;;;;;;;6209620;28;20050;-77
2024/03/02 00:37:35;;;;;;;9.07;4.47;;;;;;;;;;6188648;28;20030;-76
2024/03/02 00:40:37;;;;;;;10.73;4.70;;;;;;;;;;6157674;28;20422;-77
2024/03/02 00:43:42;;;;;;;11.65;5.53;;;;;;;;;;6175538;28;20057;-77
2024/03/02 00:46:48;;;;;;;11.98;5.53;;;;;;;;;;6177522;28;20046;-81
2024/03/02 00:49:49;;;;;;;11.38;5.68;;;;;;;;;;6178360;28;20422;-80
2024/03/02 00:52:51;;;;;;;12.32;6.03;;;;;;;;;;6178206;28;20046;-76
2024/03/02 00:55:53;;;;;;;13.77;5.90;;;;;;;;;;6162411;28;20071;-79
2024/03/02 00:58:54;;;;;;;12.48;6.03;;;;;;;;;;6178646;28;20047;-80
2024/03/02 01:01:57;;;;;;;12.82;5.90;;;;;;;;;;6179273;28;20058;-79
2024/03/02 01:04:58;;;;;;;9.00;4.80;;;;;;;;;;6179049;28;20785;-80
2024/03/02 01:08:00;;;;;;;10.23;4.80;;;;;;;;;;6186273;28;20039;-79
2024/03/02 01:11:02;;;;;;;9.90;5.00;;;;;;;;;;6162295;28;20140;-80
2024/03/02 01:14:04;;;;;;;10.27;4.85;;;;;;;;;;6179801;28;20043;-78
2024/03/02 01:17:06;;;;;;;10.93;5.65;;;;;;;;;;6189661;28;20177;-80
2024/03/02 01:20:09;;;;;;;13.98;7.55;;;;;;;;;;6183660;28;20043;-81
2024/03/02 01:23:11;;;;;;;13.40;6.82;;;;;;;;;;6181588;28;20047;-78
2024/03/02 01:26:13;;;;;;;14.90;5.65;;;;;;;;;;6177344;28;20054;-77
2024/03/02 01:29:14;;;;;;;14.63;7.07;;;;;;;;;;6178265;28;20057;-81
2024/03/02 01:32:16;;;;;;;14.73;6.80;;;;;;;;;;6181164;28;20154;-80
2024/03/02 01:35:17;;;;;;;17.00;8.18;;;;;;;;;;6190670;28;20043;-80
2024/03/02 01:38:20;;;;;;;13.65;6.72;;;;;;;;;;6182464;28;20076;-77
2024/03/02 01:41:21;;;;;;;14.00;6.55;;;;;;;;;;6175835;28;20560;-77
2024/03/02 01:44:23;;;;;;;12.63;6.43;;;;;;;;;;6187632;28;20046;-79
2024/03/02 01:47:25;;;;;;;15.85;6.50;;;;;;;;;;6193902;28;20046;-80
2024/03/02 01:50:29;;;;;;;12.90;5.95;;;;;;;;;;6184212;28;20070;-81
2024/03/02 01:53:30;;;;;;;13.13;6.22;;;;;;;;;;6180119;28;20073;-81
2024/03/02 01:56:32;;;;;;;16.50;7.35;;;;;;;;;;6176776;28;20076;-79
2024/03/02 01:59:34;;;;;;;17.42;7.75;;;;;;;;;;6169596;28;20053;-79
2024/03/02 02:02:35;;;;;;;20.92;8.45;;;;;;;;;;6180238;28;20054;-81
2024/03/02 02:05:37;;;;;;;16.40;7.28;;;;;;;;;;6178210;28;20412;-81
2024/03/02 02:08:39;;;;;;;15.70;6.45;;;;;;;;;;6177723;28;20050;-77
2024/03/02 02:11:41;;;;;;;15.23;7.25;;;;;;;;;;6178015;28;20495;-77
2024/03/02 02:14:48;;;;;;;14.93;6.70;;;;;;;;;;6174915;28;20097;-80
2024/03/02 02:17:50;;;;;;;14.18;6.93;;;;;;;;;;6192949;28;20055;-79
2024/03/02 02:20:52;;;;;;;15.77;7.47;;;;;;;;;;6179128;28;20527;-80
2024/03/02 02:23:53;;;;;;;17.95;8.15;;;;;;;;;;6185225;28;20049;-77
2024/03/02 02:26:55;;;;;;;18.75;8.13;;;;;;;;;;6180398;28;20038;-76
2024/03/02 02:29:57;;;;;;;15.23;8.05;;;;;;;;;;6184446;28;20058;-81
2024/03/02 02:32:59;;;;;;;18.83;7.90;;;;;;;;;;6182844;28;20500;-81
2024/03/02 02:36:01;;;;;;;18.30;8.43;;;;;;;;;;6195933;28;20050;-80
2024/03/02 02:39:04;;;;;;;15.70;7.68;;;;;;;;;;6179331;28;20043;-80
2024/03/02 02:42:07;;;;;;;16.67;7.20;;;;;;;;;;6185074;28;20046;-79
2024/03/02 02:45:08;;;;;;;16.25;7.40;;;;;;;;;;6176528;28;20113;-78
2024/03/02 02:48:10;;;;;;;14.18;6.75;;;;;;;;;;6176739;28;20050;-80
2024/03/02 02:51:12;;;;;;;17.13;7.53;;;;;;;;;;6175631;28;20054;-81
2024/03/02 02:54:13;;;;;;;19.30;9.13;;;;;;;;;;6179178;28;20053;-81
2024/03/02 02:57:15;;;;;;;18.30;8.35;;;;;;;;;;6177036;28;20047;-80
2024/03/02 03:00:19;;;;;;;17.38;8.60;;;;;;;;;;6180773;28;20050;-78
2024/03/02 03:03:21;;;;;;;18.77;8.57;;;;;;;;;;6178483;28;20050;-78
2024/03/02 03:06:23;;;;;;;17.48;7.97;;;;;;;;;;6189580;28;20109;-77
2024/03/02 03:09:25;;;;;;;21.52;8.40;;;;;;;;;;6171896;28;20118;-79
2024/03/02 03:12:27;;;;;;;18.67;8.57;;;;;;;;;;6177123;28;20416;-79
2024/03/02 03:15:28;;;;;;;19.75;8.45;;;;;;;;;;6172039;28;20050;-81
2024/03/02 03:18:30;;;;;;;19.77;8.25;;;;;;;;;;6185620;28;20057;-80
2024/03/02 03:21:32;;;;;;;18.15;7.30;;;;;;;;;;6184021;28;20464;-78
2024/03/02 03:24:33;;;;;;;17.08;7.70;;;;;;;;;;6166137;28;20129;-81
2024/03/02 03:27:35;;;;;;;19.33;8.93;;;;;;;;;;6174143;28;20058;-81
2024/03/02 03:30:38;;;;;;;19.67;7.68;;;;;;;;;;6189297;28;20533;-80
2024/03/02 03:33:40;;;;;;;19.47;7.70;;;;;;;;;;6187136;28;20070;-80
2024/03/02 03:36:42;;;;;;;19.73;8.25;;;;;;;;;;6188860;28;20046;-80
2024/03/02 03:39:44;;;;;;;17.20;7.75;;;;;;;;;;6188515;28;20047;-79
2024/03/02 03:42:45;;;;;;;20.67;8.43;;;;;;;;;;6185150;28;20137;-80
2024/03/02 03:45:47;;;;;;;19.85;8.20;;;;;;;;;;6186979;28;20053;-80
2024/03/02 03:48:49;;;;;;;15.80;7.65;;;;;;;;;;6177612;28;20066;-79
2024/03/02 03:51:50;;;;;;;17.65;7.88;;;;;;;;;;6184004;28;20527;-80
2024/03/02 03:54:52;;;;;;;21.65;8.10;;;;;;;;;;6192817;28;20506;-79
2024/03/02 03:57:54;;;;;;;17.83;8.23;;;;;;;;;;6180208;28;20045;-78
2024/03/02 04:00:56;;;;;;;18.67;9.23;;;;;;;;;;6174593;28;20417;-78
2024/03/02 04:03:58;;;;;;;20.10;8.13;;;;;;;;;;6167138;28;20038;-78
2024/03/02 04:06:59;;;;;;;22.45;9.48;;;;;;;;;;6162660;28;20047;-81
2024/03/02 04:10:01;;;;;;;22.42;8.88;;;;;;;;;;6170879;28;20182;-81
2024/03/02 04:13:03;;;;;;;19.15;8.38;;;;;;;;;;6197767;28;20052;-81
2024/03/02 04:16:06;;;;;;;19.65;8.95;;;;;;;;;;6180308;28;20167;-78
2024/03/02 04:19:07;;;;;;;22.33;9.00;;;;;;;;;;6181503;28;20130;-78
2024/03/02 04:22:09;;;;;;;22.33;8.40;;;;;;;;;;6179683;28;20053;-79
2024/03/02 04:25:21;;;;;;;22.73;10.30;;;;;;;;;;6166574;28;20046;-80
2024/03/02 04:28:23;;;;;;;34.15;15.30;;;;;;;;;;6181354;28;20512;-80
2024/03/02 04:31:25;;;;;;;19.08;9.40;;;;;;;;;;6184863;28;20124;-78
2024/03/02 04:34:26;;;;;;;18.15;8.80;;;;;;;;;;6185931;28;20038;-79
2024/03/02 04:37:28;;;;;;;16.63;7.95;;;;;;;;;;6174032;28;20050;-81
2024/03/02 04:40:29;;;;;;;20.95;8.00;;;;;;;;;;6178801;28;20402;-79
2024/03/02 04:43:31;;;;;;;19.95;8.80;;;;;;;;;;6179208;28;20164;-77
2024/03/02 04:46:33;;;;;;;18.20;8.45;;;;;;;;;;6161332;28;20157;-77
2024/03/02 04:49:35;;;;;;;19.75;9.05;;;;;;;;;;6179953;28;20493;-80
2024/03/02 04:52:37;;;;;;;20.63;8.70;;;;;;;;;;6181659;28;20047;-78
2024/03/02 04:58:42;;;;;;;20.83;8.07;;;;;;;;;;6189157;28;20074;-80
2024/03/02 05:01:45;;;;;;;17.55;8.77;;;;;;;;;;6181176;28;20397;-79
2024/03/02 05:04:48;;;;;;;20.55;8.20;;;;;;;;;;6178665;28;20120;-79
2024/03/02 05:07:50;;;;;;;18.67;8.38;;;;;;;;;;6186534;28;20053;-80
2024/03/02 05:10:51;;;;;;;16.13;7.97;;;;;;;;;;6181226;28;20105;-78
2024/03/02 05:13:53;;;;;;;19.33;8.85;;;;;;;;;;6175544;28;20053;-78
2024/03/02 05:16:55;;;;;;;18.00;7.65;;;;;;;;;;6176950;28;20046;-77
2024/03/02 05:19:56;;;;;;;16.95;8.20;;;;;;;;;;6180798;28;20046;-79
2024/03/02 05:22:58;;;;;;;16.60;7.50;;;;;;;;;;6184043;28;20049;-78
2024/03/02 05:25:59;;;;;;;19.10;8.52;;;;;;;;;;6180346;28;20133;-78
2024/03/02 05:29:02;;;;;;;20.88;8.13;;;;;;;;;;6187856;28;20140;-78
2024/03/02 05:32:04;;;;;;;17.25;7.50;;;;;;;;;;6177554;28;20128;-78
2024/03/02 05:35:06;;;;;;;17.75;8.68;;;;;;;;;;6182644;28;20471;-77
2024/03/02 05:38:08;;;;;;;23.25;9.85;;;;;;;;;;6175079;28;20059;-79
2024/03/02 05:41:11;;;;;;;22.02;9.35;;;;;;;;;;6181759;28;20042;-78
2024/03/02 05:44:15;;;;;;;19.65;8.90;;;;;;;;;;6174713;28;20078;-80
2024/03/02 05:47:16;;;;;;;26.92;10.85;;;;;;;;;;6175750;28;20636;-77
2024/03/02 05:50:19;;;;;;;22.70;9.48;;;;;;;;;;6178858;28;20049;-79
2024/03/02 05:53:21;;;;;;;26.70;10.38;;;;;;;;;;6183931;28;20057;-81
2024/03/02 05:56:23;;;;;;;31.15;10.55;;;;;;;;;;6173596;28;20457;-79
2024/03/02 05:59:24;;;;;;;20.70;9.88;;;;;;;;;;6188514;28;20066;-77
2024/03/02 06:02:26;;;;;;;26.65;9.95;;;;;;;;;;6198714;28;20185;-76
2024/03/02 06:05:27;;;;;;;29.73;10.30;;;;;;;;;;6195286;28;20030;-78
2024/03/02 06:08:29;;;;;;;28.45;10.57;;;;;;;;;;6193678;28;20118;-78
2024/03/02 06:11:31;;;;;;;35.60;11.77;;;;;;;;;;6175808;28;20631;-78
2024/03/02 06:14:33;;;;;;;35.70;12.52;;;;;;;;;;6184747;28;20149;-81
2024/03/02 06:17:35;;;;;;;66.28;12.15;;;;;;;;;;6179941;28;20074;-82
2024/03/02 06:20:37;;;;;;;39.93;11.03;;;;;;;;;;6179857;28;20058;-82
2024/03/02 06:23:40;;;;;;;34.38;11.82;;;;;;;;;;6177780;28;20484;-82
2024/03/02 06:26:42;;;;;;;35.03;12.18;;;;;;;;;;6173904;28;20137;-79
2024/03/02 06:29:43;;;;;;;61.63;11.98;;;;;;;;;;6171324;28;20053;-83
2024/03/02 06:32:45;;;;;;;42.83;12.93;;;;;;;;;;6181622;28;20054;-83
2024/03/02 06:35:46;;;;;;;48.30;13.90;;;;;;;;;;6182070;28;20053;-79
2024/03/02 06:38:48;;;;;;;48.53;14.63;;;;;;;;;;6170772;28;20050;-81
2024/03/02 06:41:50;;;;;;;42.15;14.45;;;;;;;;;;6176313;28;20515;-81
2024/03/02 06:44:52;;;;;;;48.90;15.65;;;;;;;;;;6183137;28;20054;-82
2024/03/02 06:47:53;;;;;;;49.95;12.98;;;;;;;;;;6175135;28;20172;-82
2024/03/02 06:50:56;;;;;;;39.50;13.70;;;;;;;;;;6177726;28;20034;-82
2024/03/02 06:53:57;;;;;;;49.47;15.23;;;;;;;;;;6183322;28;20050;-80
2024/03/02 06:56:59;;;;;;;59.42;16.85;;;;;;;;;;6175232;28;20409;-80
2024/03/02 07:00:01;;;;;;;46.63;13.23;;;;;;;;;;6185470;28;20047;-82
2024/03/02 07:03:03;;;;;;;40.63;13.50;;;;;;;;;;6163922;28;20425;-82
2024/03/02 07:06:05;;;;;;;38.40;14.48;;;;;;;;;;6185952;28;20105;-81
2024/03/02 07:09:10;;;;;;;46.15;16.25;;;;;;;;;;6164988;28;20464;-82
2024/03/02 07:12:12;;;;;;;41.63;14.23;;;;;;;;;;6178363;28;20050;-83
2024/03/02 07:18:30;;;;;;;62.53;21.38;;;;;;;;;;6178462;28;20058;-79
2024/03/02 07:21:33;;;;;;;62.40;22.15;;;;;;;;;;6196963;28;20129;-80
2024/03/02 07:24:41;;;;;;;40.53;13.82;;;;;;;;;;6180638;28;20054;-82
2024/03/02 07:27:43;;;;;;;32.22;12.98;;;;;;;;;;6188363;28;20042;-83
2024/03/02 07:30:46;;;;;;;47.17;17.42;;;;;;;;;;6180067;28;20038;-83
2024/03/02 07:33:47;;;;;;;44.17;16.63;;;;;;;;;;6181072;28;20110;-83
2024/03/02 07:36:49;;;;;;;37.28;14.50;;;;;;;;;;6174801;28;20050;-79
2024/03/02 07:39:51;;;;;;;69.63;23.92;;;;;;;;;;6174815;28;20043;-82
2024/03/02 07:42:53;;;;;;;49.88;19.17;;;;;;;;;;6176181;28;20065;-82
2024/03/02 07:45:55;;;;;;;42.75;16.13;;;;;;;;;;6192883;28;20072;-80
2024/03/02 07:48:57;;;;;;;62.10;23.80;;;;;;;;;;6178901;28;20038;-82
2024/03/02 07:51:59;;;;;;;38.08;14.18;;;;;;;;;;6196918;28;20069;-82
2024/03/02 07:55:01;;;;;;;38.85;15.32;;;;;;;;;;6182418;28;20055;-84
2024/03/02 07:58:02;;;;;;;114.05;49.38;;;;;;;;;;6183632;28;20073;-79
2024/03/02 08:01:04;;;;;;;63.50;27.17;;;;;;;;;;6186049;28;20042;-81
2024/03/02 08:04:06;;;;;;;46.38;20.60;;;;;;;;;;6180291;28;20105;-81
2024/03/02 08:07:09;;;;;;;36.78;15.73;;;;;;;;;;6187986;28;20054;-78
2024/03/02 08:10:11;;;;;;;34.72;15.35;;;;;;;;;;6182645;28;20054;-81
2024/03/02 08:13:13;;;;;;;33.10;13.07;;;;;;;;;;6207133;28;20134;-80
2024/03/02 08:16:16;;;;;;;34.45;13.82;;;;;;;;;;6194830;28;20053;-80
2024/03/02 08:19:17;;;;;;;29.33;13.27;;;;;;;;;;6201823;28;20050;-82
2024/03/02 08:22:19;;;;;;;31.70;17.27;;;;;;;;;;6196718;28;20052;-79
2024/03/02 08:25:22;;;;;;;33.45;14.63;;;;;;;;;;6217606;28;20641;-80
2024/03/02 08:28:24;;;;;;;35.13;15.10;;;;;;;;;;6190389;28;20062;-80
2024/03/02 08:31:25;;;;;;;35.53;15.93;;;;;;;;;;6207809;28;20069;-79
2024/03/02 08:34:27;;;;;;;40.10;18.63;;;;;;;;;;6197598;28;20050;-79
2024/03/02 08:37:29;;;;;;;40.15;15.95;;;;;;;;;;6218750;28;20054;-81
2024/03/02 08:40:31;;;;;;;31.30;14.80;;;;;;;;;;6208315;28;20030;-78
2024/03/02 08:43:33;;;;;;;29.75;14.30;;;;;;;;;;6201453;28;20054;-80
2024/03/02 08:46:35;;;;;;;33.88;15.07;;;;;;;;;;6200605;28;20054;-81
2024/03/02 08:49:36;;;;;;;44.30;17.38;;;;;;;;;;6180876;28;20473;-81
2024/03/02 08:52:38;;;;;;;27.35;12.43;;;;;;;;;;6179735;28;20066;-83
2024/03/02 08:55:40;;;;;;;39.25;16.38;;;;;;;;;;6182720;28;20061;-79
2024/03/02 08:58:43;;;;;;;30.55;14.95;;;;;;;;;;6183234;28;20057;-82
2024/03/02 09:01:45;;;;;;;;;;;;;;;;;;6181463;28;20386;-84
2024/03/02 09:04:46;;;;;;;49.47;26.05;;;;;;;;;;6173462;28;19930;-81
2024/03/02 09:07:48;;;;;;;30.88;16.00;;;;;;;;;;6195356;28;20061;-79
2024/03/02 09:10:50;;;;;;;11.52;7.13;;;;;;;;;;6187315;28;20047;-83
2024/03/02 09:13:52;;;;;;;5.38;4.00;;;;;;;;;;6175634;28;20061;-82
2024/03/02 09:16:54;;;;;;;5.38;3.22;;;;;;;;;;6177724;28;20046;-80
2024/03/02 09:19:56;;;;;;;5.95;3.78;;;;;;;;;;6185033;28;20058;-82
2024/03/02 09:22:57;;;;;;;5.88;3.60;;;;;;;;;;6181618;28;20595;-81
2024/03/02 09:25:59;;;;;;;6.25;3.40;;;;;;;;;;6161011;28;20042;-82
2024/03/02 09:29:01;;;;;;;4.90;3.63;;;;;;;;;;6167753;28;20718;-83
2024/03/02 09:32:04;;;;;;;5.22;3.40;;;;;;;;;;6180317;28;20066;-83
2024/03/02 09:35:06;;;;;;;6.03;3.33;;;;;;;;;;6195748;28;20109;-81
2024/03/02 09:38:07;;;;;;;5.35;3.35;;;;;;;;;;6179329;28;20050;-82
2024/03/02 09:41:09;;;;;;;4.90;3.55;;;;;;;;;;6183205;28;20078;-83
2024/03/02 09:44:11;;;;;;;5.50;3.83;;;;;;;;;;6188172;28;20101;-82
2024/03/02 09:47:13;;;;;;;6.30;3.65;;;;;;;;;;6184334;28;20062;-81
2024/03/02 09:50:15;;;;;;;4.68;3.20;;;;;;;;;;6183307;28;20054;-82
2024/03/02 09:53:18;;;;;;;5.82;3.72;;;;;;;;;;6176941;28;20132;-80
2024/03/02 09:56:21;;;;;;;4.70;3.28;;;;;;;;;;6170247;28;20090;-83
2024/03/02 09:59:22;;;;;;;;;;;;;;;;;;6177104;28;20057;-81
2024/03/02 10:02:24;;;;;;;5.63;3.33;;;;;;;;;;6183699;28;19922;-82
2024/03/02 10:05:30;;;;;;;7.88;3.65;;;;;;;;;;6184877;28;20074;-82
2024/03/02 10:08:48;;;;;;;5.93;3.40;;;;;;;;;;6193281;28;20046;-82
2024/03/02 10:11:50;;;;;;;5.57;3.28;;;;;;;;;;6187374;28;20066;-83
2024/03/02 10:15:03;;;;;;;5.63;3.22;;;;;;;;;;6179287;28;20038;-81
2024/03/02 10:18:05;;;;;;;4.80;3.17;;;;;;;;;;6175168;28;20050;-82
2024/03/02 10:21:15;;;;;;;5.60;3.10;;;;;;;;;;6186014;28;20073;-82
2024/03/02 10:24:18;;;;;;;5.97;3.03;;;;;;;;;;6203788;28;20092;-83
2024/03/02 10:27:23;;;;;;;;;;;;;;;;;;6187393;28;20129;-83
2024/03/02 10:30:29;;;;;;;3.97;2.97;;;;;;;;;;6181626;28;19926;-82
2024/03/02 10:33:31;;;;;;;4.07;3.05;;;;;;;;;;6178610;28;20042;-82
2024/03/02 10:36:37;;;;;;;6.70;2.97;;;;;;;;;;6176899;28;20133;-82
2024/03/02 10:39:39;;;;;;;5.93;3.35;;;;;;;;;;6174968;28;20050;-80
2024/03/02 10:42:42;;;;;;;5.65;3.33;;;;;;;;;;6179516;28;20053;-83
2024/03/02 10:45:48;;;;;;;6.40;3.33;;;;;;;;;;6178311;28;20591;-81
2024/03/02 10:48:50;;;;;;;4.45;3.05;;;;;;;;;;6172842;28;21926;-81
2024/03/02 10:51:52;;;;;;;5.45;3.35;;;;;;;;;;6173063;28;20050;-82
2024/03/02 10:54:53;;;;;;;4.90;3.13;;;;;;;;;;6176561;28;20046;-81
2024/03/02 10:57:56;;;;;;;6.22;3.40;;;;;;;;;;6161891;28;20049;-81
2024/03/02 11:01:03;;;;;;;4.72;3.40;;;;;;;;;;6173542;28;20126;-81
2024/03/02 11:04:08;;;;;;;4.88;3.22;;;;;;;;;;6186842;28;20053;-82
2024/03/02 11:07:11;;;;;;;6.22;3.60;;;;;;;;;;6182013;28;20110;-82
2024/03/02 11:10:13;;;;;;;6.28;3.20;;;;;;;;;;6165859;28;20042;-83
2024/03/02 11:13:15;;;;;;;5.25;3.65;;;;;;;;;;6182177;28;20097;-82
2024/03/02 11:16:32;;;;;;;4.82;3.10;;;;;;;;;;6172064;28;20050;-82
2024/03/02 11:19:36;;;;;;;5.07;3.10;;;;;;;;;;6185940;28;20066;-80
2024/03/02 11:22:39;;;;;;;5.80;3.58;;;;;;;;;;6173185;28;20466;-81
2024/03/02 11:25:40;;;;;;;7.53;3.40;;;;;;;;;;6168655;28;20549;-82
2024/03/02 11:28:42;;;;;;;4.32;3.00;;;;;;;;;;6181184;28;20050;-81
2024/03/02 11:32:00;;;;;;;4.72;3.25;;;;;;;;;;6182068;28;20046;-81
2024/03/02 11:35:02;;;;;;;5.72;2.90;;;;;;;;;;6178289;28;20046;-81
2024/03/02 11:38:04;;;;;;;5.18;3.10;;;;;;;;;;6180726;28;20053;-79
2024/03/02 11:41:08;;;;;;;6.18;3.22;;;;;;;;;;6176562;28;20053;-82
2024/03/02 11:44:11;;;;;;;4.93;3.10;;;;;;;;;;6183260;28;20564;-83
2024/03/02 11:47:15;;;;;;;5.65;3.40;;;;;;;;;;6192442;28;20108;-82
2024/03/02 11:50:30;;;;;;;6.53;3.63;;;;;;;;;;6182078;28;20062;-83
2024/03/02 11:53:33;;;;;;;4.28;3.10;;;;;;;;;;6180917;28;20050;-81
2024/03/02 11:56:37;;;;;;;4.00;3.00;;;;;;;;;;6169526;28;20065;-82
2024/03/02 11:59:38;;;;;;;10.02;5.35;;;;;;;;;;6186603;28;20043;-82
2024/03/02 12:02:44;;;;;;;14.90;6.65;;;;;;;;;;6195029;28;20050;-82
2024/03/02 12:05:49;;;;;;;5.07;2.60;;;;;;;;;;6186323;28;20390;-81
2024/03/02 12:08:54;;;;;;;4.00;2.25;;;;;;;;;;6183465;28;20124;-83
2024/03/02 12:12:10;;;;;;;3.50;2.47;;;;;;;;;;6183078;28;20122;-82
2024/03/02 12:15:13;;;;;;;4.13;2.50;;;;;;;;;;6180163;28;20153;-82
2024/03/02 12:18:15;;;;;;;3.73;2.60;;;;;;;;;;6177617;28;20455;-81
2024/03/02 12:21:20;;;;;;;6.85;3.70;;;;;;;;;;6179964;28;20515;-81
2024/03/02 12:24:23;;;;;;;13.70;6.43;;;;;;;;;;6137727;28;20192;-82
2024/03/02 12:27:25;;;;;;;14.38;7.35;;;;;;;;;;6183721;28;20087;-81
2024/03/02 12:30:30;;;;;;;5.65;4.05;;;;;;;;;;6185346;28;20563;-83
2024/03/02 12:33:32;;;;;;;6.80;4.30;;;;;;;;;;6183960;28;20479;-83
2024/03/02 12:36:38;;;;;;;6.35;4.13;;;;;;;;;;6183685;28;20046;-82
2024/03/02 12:39:45;;;;;;;5.85;4.10;;;;;;;;;;6160437;28;20502;-82
2024/03/02 12:42:47;;;;;;;11.38;5.30;;;;;;;;;;6180903;28;20587;-83
2024/03/02 12:45:48;;;;;;;5.73;4.07;;;;;;;;;;6184832;28;20154;-82
2024/03/02 12:48:51;;;;;;;7.57;5.07;;;;;;;;;;6183753;28;20042;-83
2024/03/02 12:51:53;;;;;;;6.72;4.47;;;;;;;;;;6185616;28;20526;-83
2024/03/02 12:54:58;;;;;;;11.27;5.57;;;;;;;;;;6177943;28;20039;-83
2024/03/02 12:58:02;;;;;;;30.65;12.13;;;;;;;;;;6179764;28;20424;-82
2024/03/02 13:01:08;;;;;;;4.90;2.97;;;;;;;;;;6187992;28;20069;-81
2024/03/02 13:04:10;;;;;;;3.60;2.80;;;;;;;;;;6181275;28;20051;-80
2024/03/02 13:07:13;;;;;;;3.63;2.20;;;;;;;;;;6180627;28;20055;-81
2024/03/02 13:10:15;;;;;;;4.50;2.20;;;;;;;;;;6166659;28;20416;-83
2024/03/02 13:13:17;;;;;;;5.88;2.65;;;;;;;;;;6187111;28;20054;-82
2024/03/02 13:16:20;;;;;;;4.32;2.92;;;;;;;;;;6181677;28;20104;-83
2024/03/02 13:19:30;;;;;;;4.35;2.70;;;;;;;;;;6180204;28;20054;-84
2024/03/02 13:22:32;;;;;;;3.88;2.70;;;;;;;;;;6187732;28;20050;-84
2024/03/02 13:25:34;;;;;;;27.88;10.73;;;;;;;;;;6186576;28;20053;-83
2024/03/02 13:28:35;;;;;;;2.78;2.08;;;;;;;;;;6186034;28;20416;-82
2024/03/02 13:31:37;;;;;;;2.92;1.75;;;;;;;;;;6188579;28;20165;-82
2024/03/02 13:34:39;;;;;;;4.10;2.35;;;;;;;;;;6187827;28;20513;-83
2024/03/02 13:37:40;;;;;;;5.25;3.50;;;;;;;;;;6197401;28;20053;-84
2024/03/02 13:40:43;;;;;;;5.72;2.75;;;;;;;;;;6176756;28;20505;-82
2024/03/02 13:43:45;;;;;;;3.55;2.20;;;;;;;;;;6203821;28;20516;-83
2024/03/02 13:46:48;;;;;;;3.47;2.40;;;;;;;;;;6182946;28;20050;-82
2024/03/02 13:49:50;;;;;;;2.95;1.52;;;;;;;;;;6179129;28;20130;-83
2024/03/02 13:52:51;;;;;;;8.43;2.78;;;;;;;;;;6184832;28;20353;-84
2024/03/02 13:55:53;;;;;;;3.17;2.50;;;;;;;;;;6186613;28;20073;-84
2024/03/02 13:58:55;;;;;;;2.90;1.70;;;;;;;;;;6181750;28;20042;-83
2024/03/02 14:01:57;;;;;;;53.28;14.65;;;;;;;;;;6186017;28;20050;-83
2024/03/02 14:04:59;;;;;;;3.95;2.38;;;;;;;;;;6179643;28;20090;-82
2024/03/02 14:08:01;;;;;;;3.30;2.00;;;;;;;;;;6185650;28;20069;-81
2024/03/02 14:11:03;;;;;;;5.20;2.38;;;;;;;;;;6165059;28;20051;-84
2024/03/02 14:14:04;;;;;;;4.07;2.45;;;;;;;;;;6188038;28;20054;-82
2024/03/02 14:17:10;;;;;;;3.95;2.35;;;;;;;;;;6181140;28;20042;-82
2024/03/02 14:20:13;;;;;;;10.52;5.57;;;;;;;;;;6186924;28;20053;-82
2024/03/02 14:23:15;;;;;;;2.88;2.20;;;;;;;;;;6178810;28;20421;-82
2024/03/02 14:26:17;;;;;;;4.63;2.60;;;;;;;;;;6178082;28;20058;-83
2024/03/02 14:29:19;;;;;;;3.75;2.40;;;;;;;;;;6187133;28;20145;-83
2024/03/02 14:32:21;;;;;;;4.25;2.35;;;;;;;;;;6187354;28;20129;-83
2024/03/02 14:35:24;;;;;;;3.80;2.10;;;;;;;;;;6175418;28;20054;-83
2024/03/02 14:38:25;;;;;;;3.00;2.13;;;;;;;;;;6176415;28;20457;-83
2024/03/02 14:41:27;;;;;;;4.35;2.70;;;;;;;;;;6182790;28;20589;-83
2024/03/02 14:44:29;;;;;;;4.13;2.80;;;;;;;;;;6178360;28;20053;-81
2024/03/02 14:47:35;;;;;;;3.40;2.47;;;;;;;;;;6181641;28;20054;-81
2024/03/02 14:50:37;;;;;;;4.05;2.67;;;;;;;;;;6198852;28;20076;-80
2024/03/02 14:53:38;;;;;;;4.40;2.63;;;;;;;;;;6179040;28;20332;-82
2024/03/02 14:56:40;;;;;;;3.47;2.30;;;;;;;;;;6181112;28;20054;-83
2024/03/02 14:59:41;;;;;;;3.63;2.38;;;;;;;;;;6170141;28;20046;-79
2024/03/02 15:02:43;;;;;;;3.97;2.47;;;;;;;;;;6184915;28;20053;-80
2024/03/02 15:05:45;;;;;;;2.78;2.45;;;;;;;;;;6177394;28;20050;-82
2024/03/02 15:08:47;;;;;;;3.00;2.00;;;;;;;;;;6186951;28;20113;-81
2024/03/02 15:11:49;;;;;;;2.65;2.08;;;;;;;;;;6187515;28;20049;-82
2024/03/02 15:14:50;;;;;;;2.72;2.13;;;;;;;;;;6189798;28;20047;-81
2024/03/02 15:17:52;;;;;;;2.92;1.73;;;;;;;;;;6164019;28;20042;-82
2024/03/02 15:20:54;;;;;;;4.45;1.80;;;;;;;;;;6186843;28;20053;-79
2024/03/02 15:23:56;;;;;;;1.60;1.50;;;;;;;;;;6186884;28;20528;-82
2024/03/02 15:26:57;;;;;;;3.03;1.33;;;;;;;;;;6188991;28;20057;-82
2024/03/02 15:29:59;;;;;;;3.08;1.55;;;;;;;;;;6181294;28;20112;-82
2024/03/02 15:33:01;;;;;;;2.30;1.30;;;;;;;;;;6201706;28;20046;-81
2024/03/02 15:36:03;;;;;;;1.85;1.10;;;;;;;;;;6197588;28;20469;-79
2024/03/02 15:39:08;;;;;;;3.53;1.38;;;;;;;;;;6194528;28;20050;-81
2024/03/02 15:42:10;;;;;;;1.65;1.10;;;;;;;;;;6203321;28;20046;-83
2024/03/02 15:45:12;;;;;;;1.70;1.30;;;;;;;;;;6185092;28;20050;-83
2024/03/02 15:48:13;;;;;;;2.05;1.20;;;;;;;;;;6191879;28;20062;-83
2024/03/02 15:51:15;;;;;;;4.10;2.08;;;;;;;;;;6184717;28;20073;-82
2024/03/02 15:54:17;;;;;;;3.00;1.65;;;;;;;;;;6187659;28;20070;-79
2024/03/02 15:57:19;;;;;;;6.50;2.47;;;;;;;;;;6177772;28;20039;-84
2024/03/02 16:00:21;;;;;;;2.67;1.70;;;;;;;;;;6185502;28;20054;-83
2024/03/02 16:03:23;;;;;;;4.03;2.40;;;;;;;;;;6180519;28;20570;-83
2024/03/02 16:06:24;;;;;;;4.53;2.53;;;;;;;;;;6185461;28;20115;-82
2024/03/02 16:09:26;;;;;;;3.47;1.67;;;;;;;;;;6179695;28;20519;-82
2024/03/02 16:12:28;;;;;;;4.03;2.10;;;;;;;;;;6155926;28;20047;-82
2024/03/02 16:15:30;;;;;;;4.80;2.28;;;;;;;;;;6180022;28;20423;-81
2024/03/02 16:18:34;;;;;;;3.78;1.83;;;;;;;;;;6174724;28;20058;-80
2024/03/02 16:21:36;;;;;;;4.82;2.80;;;;;;;;;;6192515;28;20177;-82
2024/03/02 16:24:37;;;;;;;3.47;2.22;;;;;;;;;;6176974;28;20053;-81
2024/03/02 16:27:40;;;;;;;4.22;2.20;;;;;;;;;;6181074;28;20051;-82
2024/03/02 16:30:44;;;;;;;4.38;2.40;;;;;;;;;;6181127;28;20438;-83
2024/03/02 16:33:46;;;;;;;4.53;2.55;;;;;;;;;;6184902;28;20046;-81
2024/03/02 16:36:47;;;;;;;5.22;2.80;;;;;;;;;;6179881;28;20057;-81
2024/03/02 16:39:49;;;;;;;5.07;2.83;;;;;;;;;;6180416;28;20969;-82
2024/03/02 16:42:52;;;;;;;4.13;2.38;;;;;;;;;;6180224;28;20042;-81
2024/03/02 16:45:53;;;;;;;5.97;3.53;;;;;;;;;;6181534;28;20177;-80
2024/03/02 16:48:55;;;;;;;13.60;6.30;;;;;;;;;;6194994;28;20535;-81
2024/03/02 16:51:57;;;;;;;9.43;6.00;;;;;;;;;;6182090;28;20057;-81
2024/03/02 16:54:58;;;;;;;10.35;4.75;;;;;;;;;;6185164;28;20057;-80
2024/03/02 16:58:05;;;;;;;7.78;4.22;;;;;;;;;;6198200;28;20062;-80
2024/03/02 17:01:07;;;;;;;9.38;4.45;;;;;;;;;;6185328;28;20054;-80
2024/03/02 17:04:09;;;;;;;12.32;7.07;;;;;;;;;;6195529;28;20417;-80
2024/03/02 17:07:11;;;;;;;19.00;11.48;;;;;;;;;;6176014;28;20168;-79
2024/03/02 17:10:13;;;;;;;13.85;8.10;;;;;;;;;;6184777;28;20050;-82
2024/03/02 17:13:15;;;;;;;10.70;7.13;;;;;;;;;;6183856;28;20197;-78
2024/03/02 17:16:17;;;;;;;12.88;8.63;;;;;;;;;;6180817;28;20133;-78
2024/03/02 17:19:19;;;;;;;9.93;6.25;;;;;;;;;;6180219;28;20046;-79
2024/03/02 17:22:20;;;;;;;10.20;6.05;;;;;;;;;;6182208;28;20479;-81
2024/03/02 17:25:22;;;;;;;9.88;6.30;;;;;;;;;;6175914;28;20058;-79
2024/03/02 17:28:26;;;;;;;36.13;18.00;;;;;;;;;;6182446;28;20054;-79
2024/03/02 17:31:30;;;;;;;18.30;11.27;;;;;;;;;;6186704;28;20142;-81
2024/03/02 17:34:32;;;;;;;27.45;14.80;;;;;;;;;;6180275;28;20046;-81
2024/03/02 17:37:35;;;;;;;26.35;13.65;;;;;;;;;;6184127;28;20420;-78
2024/03/02 17:40:37;;;;;;;22.35;13.52;;;;;;;;;;6191033;28;20488;-79
2024/03/02 17:43:39;;;;;;;29.10;16.20;;;;;;;;;;6183016;28;20058;-81
2024/03/02 17:46:41;;;;;;;25.47;13.97;;;;;;;;;;6184106;28;20054;-79
2024/03/02 17:49:42;;;;;;;17.25;9.98;;;;;;;;;;6182443;28;20046;-82
2024/03/02 17:52:44;;;;;;;15.25;9.30;;;;;;;;;;6175456;28;20066;-80
2024/03/02 17:55:46;;;;;;;12.88;8.10;;;;;;;;;;6183501;28;20050;-82
2024/03/02 17:58:48;;;;;;;19.35;11.73;;;;;;;;;;6182794;28;20864;-83
2024/03/02 18:01:49;;;;;;;19.60;12.55;;;;;;;;;;6178343;28;20047;-80
2024/03/02 18:04:51;;;;;;;16.02;8.95;;;;;;;;;;6172709;28;20043;-80
2024/03/02 18:07:53;;;;;;;17.92;9.00;;;;;;;;;;6176374;28;20399;-78